Time;durP1;ratioP1;P1;durP2;ratioP2;P2;SDS_P1;SDS_P2;PMS_P1;PMS_P2;Temp;Humidity;BMP_temperature;BMP_pressure;BME280_temperature;BME280_humidity;BME280_pressure;Samples;Min_cycle;Max_cycle;Signal;HPM_P1;HPM_P2
2022/05/09 00:01:20;;;;;;;6.80;2.40;;;16.00;87.80;;;;;;5049745;28;20667;-33
2022/05/09 00:03:47;;;;;;;7.22;2.15;;;16.00;87.70;;;;;;5063827;28;20198;-33
2022/05/09 00:06:14;;;;;;;6.07;2.05;;;16.00;87.60;;;;;;5069540;28;20203;-33
2022/05/09 00:08:42;;;;;;;3.47;2.00;;;15.90;87.60;;;;;;5068895;28;20666;-33
2022/05/09 00:11:11;;;;;;;5.72;2.13;;;15.90;87.70;;;;;;5067406;28;20318;-39
2022/05/09 00:13:39;;;;;;;4.72;2.45;;;15.90;87.70;;;;;;5050038;28;20201;-39
2022/05/09 00:16:07;;;;;;;4.93;2.60;;;15.90;87.70;;;;;;5049826;28;20191;-39
2022/05/09 00:18:34;;;;;;;5.60;2.30;;;15.80;87.70;;;;;;5051363;28;20228;-39
2022/05/09 00:21:07;;;;;;;5.88;3.10;;;15.80;87.70;;;;;;5054517;28;20266;-39
2022/05/09 00:23:34;;;;;;;4.33;2.30;;;15.80;87.60;;;;;;5049845;28;20230;-39
2022/05/09 00:26:02;;;;;;;7.05;2.40;;;15.80;87.60;;;;;;5048836;28;20199;-39
2022/05/09 00:28:29;;;;;;;6.95;2.55;;;15.80;87.60;;;;;;5065406;28;20243;-39
2022/05/09 00:30:57;;;;;;;7.03;2.70;;;15.70;87.50;;;;;;5048394;28;20193;-39
2022/05/09 00:33:24;;;;;;;6.47;2.58;;;15.70;87.40;;;;;;5050457;28;20277;-39
2022/05/09 00:35:52;;;;;;;5.32;2.22;;;15.70;87.50;;;;;;5065025;28;20270;-39
2022/05/09 00:38:20;;;;;;;5.18;2.25;;;15.60;87.60;;;;;;5050353;28;20258;-39
2022/05/09 00:43:37;;;;;;;4.77;2.50;;;15.50;87.70;;;;;;5050034;28;20289;-39
2022/05/09 00:46:08;;;;;;;5.38;2.53;;;15.50;88.50;;;;;;5050080;28;20208;-38
2022/05/09 00:48:36;;;;;;;5.38;2.67;;;15.50;87.80;;;;;;5062188;28;20215;-39
2022/05/09 00:51:06;;;;;;;9.57;2.83;;;15.50;87.80;;;;;;5054652;28;20204;-39
2022/05/09 00:53:36;;;;;;;5.45;2.55;;;15.40;87.90;;;;;;5033460;28;20736;-39
2022/05/09 00:56:10;;;;;;;7.05;2.58;;;15.40;88.10;;;;;;5055098;28;20216;-39
2022/05/09 00:58:46;;;;;;;3.87;2.30;;;15.40;88.00;;;;;;5042170;28;21467;-33
2022/05/09 01:01:15;;;;;;;5.15;2.70;;;15.30;88.10;;;;;;5060205;28;20715;-33
2022/05/09 01:03:49;;;;;;;5.35;2.40;;;15.30;88.10;;;;;;5066850;28;20204;-34
2022/05/09 01:06:17;;;;;;;5.97;2.63;;;15.30;88.20;;;;;;5062833;28;20191;-34
2022/05/09 01:08:44;;;;;;;5.32;2.47;;;15.20;88.00;;;;;;5061917;28;20207;-38
2022/05/09 01:11:18;;;;;;;7.00;2.77;;;15.20;88.10;;;;;;5062086;28;20235;-39
2022/05/09 01:13:48;;;;;;;4.80;2.70;;;15.20;88.20;;;;;;5068610;28;20215;-39
2022/05/09 01:16:18;;;;;;;6.22;3.45;;;15.10;88.10;;;;;;5064680;28;20250;-39
2022/05/09 01:18:46;;;;;;;5.27;2.70;;;15.10;88.20;;;;;;5058154;28;20602;-39
2022/05/09 01:21:31;;;;;;;4.43;2.45;;;15.10;88.20;;;;;;5060835;28;20223;-39
2022/05/09 01:23:59;;;;;;;6.43;2.90;;;15.00;88.60;;;;;;5055605;28;20238;-40
2022/05/09 01:26:26;;;;;;;6.28;2.83;;;15.00;88.30;;;;;;5066562;28;20199;-39
2022/05/09 01:29:02;;;;;;;8.68;2.83;;;15.00;88.30;;;;;;5050504;28;20215;-39
2022/05/09 01:31:30;;;;;;;8.07;2.90;;;14.90;88.50;;;;;;5068673;28;20195;-39
2022/05/09 01:33:59;;;;;;;5.80;2.50;;;14.90;88.50;;;;;;5064324;28;20208;-39
2022/05/09 01:36:30;;;;;;;7.80;2.60;;;14.90;88.40;;;;;;5048256;28;20240;-39
2022/05/09 01:39:00;;;;;;;5.85;2.80;;;14.90;88.60;;;;;;5062923;28;20208;-39
2022/05/09 01:41:40;;;;;;;9.27;2.87;;;14.80;88.60;;;;;;5064616;28;20253;-39
2022/05/09 01:44:10;;;;;;;8.77;3.30;;;14.80;88.80;;;;;;5068580;28;20212;-39
2022/05/09 01:49:29;;;;;;;5.82;3.08;;;14.70;88.70;;;;;;5064309;28;20234;-37
2022/05/09 01:52:01;;;;;;;5.00;2.63;;;14.70;88.60;;;;;;5059712;28;20203;-39
2022/05/09 01:54:29;;;;;;;8.67;3.30;;;14.70;88.50;;;;;;5059372;28;20220;-39
2022/05/09 01:56:56;;;;;;;6.60;3.20;;;14.70;88.60;;;;;;5061111;28;20454;-39
2022/05/09 01:59:27;;;;;;;7.60;3.33;;;14.70;88.80;;;;;;5049683;28;20212;-39
2022/05/09 02:02:00;;;;;;;8.05;3.47;;;14.60;88.70;;;;;;5061256;28;20923;-39
2022/05/09 02:04:28;;;;;;;7.18;3.28;;;14.60;88.90;;;;;;5065875;28;20212;-39
2022/05/09 02:06:57;;;;;;;6.93;3.67;;;14.60;88.80;;;;;;5070030;28;20212;-40
2022/05/09 02:09:24;;;;;;;9.18;4.15;;;14.50;88.80;;;;;;5055851;28;20215;-39
2022/05/09 02:11:51;;;;;;;7.23;3.80;;;14.50;88.90;;;;;;5067811;28;20251;-39
2022/05/09 02:14:18;;;;;;;10.30;3.43;;;14.50;88.90;;;;;;5056260;28;20226;-39
2022/05/09 02:16:46;;;;;;;9.25;3.53;;;14.40;89.10;;;;;;5064549;28;20200;-38
2022/05/09 02:19:13;;;;;;;7.25;3.65;;;14.40;89.10;;;;;;5066320;28;20204;-33
2022/05/09 02:21:40;;;;;;;6.70;3.22;;;14.40;89.10;;;;;;5053294;28;20574;-34
2022/05/09 02:24:08;;;;;;;6.07;3.22;;;14.30;89.10;;;;;;5038042;28;20538;-34
2022/05/09 02:26:37;;;;;;;7.13;3.53;;;14.30;89.00;;;;;;5052056;28;20258;-34
2022/05/09 02:29:05;;;;;;;7.40;3.67;;;14.20;89.00;;;;;;5048330;28;20200;-33
2022/05/09 02:31:34;;;;;;;7.30;3.73;;;14.20;88.90;;;;;;5047994;28;20212;-33
2022/05/09 02:34:02;;;;;;;6.47;4.00;;;14.20;88.70;;;;;;5050416;28;20269;-33
2022/05/09 02:36:29;;;;;;;10.60;4.00;;;14.20;88.80;;;;;;5065428;28;20235;-34
2022/05/09 02:38:56;;;;;;;7.00;3.88;;;14.10;88.80;;;;;;5061711;28;20204;-33
2022/05/09 02:41:26;;;;;;;9.90;3.50;;;14.10;88.80;;;;;;5047712;28;20236;-34
2022/05/09 02:43:53;;;;;;;6.40;3.15;;;14.10;88.60;;;;;;5050549;28;20764;-33
2022/05/09 02:46:21;;;;;;;8.77;3.63;;;14.10;88.90;;;;;;5048999;28;20215;-35
2022/05/09 02:48:53;;;;;;;5.63;3.60;;;14.10;89.00;;;;;;5052041;28;20196;-33
2022/05/09 02:51:21;;;;;;;10.40;3.90;;;14.00;89.10;;;;;;5045045;28;20659;-34
2022/05/09 02:53:51;;;;;;;8.40;4.00;;;14.00;89.20;;;;;;5053175;28;20215;-34
2022/05/09 02:56:18;;;;;;;7.17;3.77;;;13.90;89.10;;;;;;5065541;28;20596;-32
2022/05/09 02:58:45;;;;;;;6.70;3.97;;;13.90;89.20;;;;;;5058320;28;20199;-39
2022/05/09 03:01:12;;;;;;;6.37;2.90;;;13.90;89.30;;;;;;5064362;28;20332;-39
2022/05/09 03:06:26;;;;;;;9.33;4.30;;;13.80;89.40;;;;;;5046783;28;20690;-39
2022/05/09 03:08:53;;;;;;;7.23;3.60;;;13.80;89.40;;;;;;5054881;28;20254;-39
2022/05/09 03:11:23;;;;;;;8.90;4.20;;;13.70;89.40;;;;;;5051788;28;20236;-38
2022/05/09 03:13:51;;;;;;;7.40;4.10;;;13.70;89.40;;;;;;5050046;28;20211;-39
2022/05/09 03:16:19;;;;;;;9.20;4.03;;;13.60;89.40;;;;;;5057444;28;20208;-39
2022/05/09 03:18:47;;;;;;;5.30;3.83;;;13.60;89.40;;;;;;5062070;28;20211;-39
2022/05/09 03:21:17;;;;;;;6.57;3.92;;;13.60;89.50;;;;;;5051249;28;20725;-39
2022/05/09 03:23:45;;;;;;;9.10;4.10;;;13.50;89.50;;;;;;5067492;28;20731;-39
2022/05/09 03:26:12;;;;;;;9.53;4.00;;;13.50;89.40;;;;;;5047525;28;20242;-39
2022/05/09 03:28:40;;;;;;;5.30;3.57;;;13.50;89.50;;;;;;5048112;28;20746;-39
2022/05/09 03:31:07;;;;;;;5.70;3.90;;;13.40;89.40;;;;;;5063488;28;20238;-39
2022/05/09 03:33:35;;;;;;;8.07;3.93;;;13.40;89.50;;;;;;5067100;28;20227;-38
2022/05/09 03:36:07;;;;;;;8.70;3.63;;;13.40;89.70;;;;;;5048653;28;20257;-39
2022/05/09 03:38:35;;;;;;;8.43;3.90;;;13.30;89.60;;;;;;5047364;28;20310;-38
2022/05/09 03:41:02;;;;;;;6.30;4.00;;;13.30;89.40;;;;;;5045960;28;20725;-39
2022/05/09 03:43:29;;;;;;;10.30;4.40;;;13.30;89.30;;;;;;5047614;28;20311;-38
2022/05/09 03:45:58;;;;;;;7.93;3.90;;;13.30;89.60;;;;;;5047190;28;20200;-39
2022/05/09 03:48:25;;;;;;;7.03;3.77;;;13.30;89.60;;;;;;5047521;28;20258;-39
2022/05/09 03:50:53;;;;;;;6.47;4.27;;;13.30;89.70;;;;;;5057353;28;20248;-48
2022/05/09 03:53:24;;;;;;;9.47;4.30;;;13.30;89.80;;;;;;5059183;28;20208;-39
2022/05/09 03:55:54;;;;;;;6.90;4.20;;;13.30;89.90;;;;;;5060140;28;20207;-39
2022/05/09 03:58:21;;;;;;;8.73;4.43;;;13.30;89.90;;;;;;5062950;28;20220;-39
2022/05/09 04:00:49;;;;;;;10.37;4.70;;;13.30;89.80;;;;;;5046867;28;20714;-39
2022/05/09 04:03:16;;;;;;;9.93;4.23;;;13.30;90.00;;;;;;5051355;28;20723;-39
2022/05/09 04:05:44;;;;;;;7.47;4.13;;;13.30;90.00;;;;;;5057361;28;20586;-39
2022/05/09 04:08:17;;;;;;;7.97;3.83;;;13.30;90.00;;;;;;5067470;28;20591;-39
2022/05/09 04:10:45;;;;;;;9.80;4.30;;;13.20;90.00;;;;;;5063062;28;20602;-38
2022/05/09 04:13:14;;;;;;;10.83;4.57;;;13.20;90.00;;;;;;5069193;28;20268;-39
2022/05/09 04:18:33;;;;;;;7.27;4.03;;;13.20;90.00;;;;;;5051903;28;20204;-34
2022/05/09 04:21:00;;;;;;;8.17;3.87;;;13.20;90.00;;;;;;5049270;28;20255;-34
2022/05/09 04:23:30;;;;;;;11.07;4.13;;;13.20;90.00;;;;;;5059581;28;20212;-33
2022/05/09 04:25:57;;;;;;;8.60;4.10;;;13.20;90.00;;;;;;5049511;28;20204;-34
2022/05/09 04:28:24;;;;;;;16.20;6.13;;;13.20;90.00;;;;;;5048511;28;20196;-34
2022/05/09 04:30:54;;;;;;;8.13;4.13;;;13.20;90.00;;;;;;5049998;28;20208;-33
2022/05/09 04:33:28;;;;;;;8.33;4.10;;;13.20;90.00;;;;;;5061014;28;20243;-34
2022/05/09 04:35:58;;;;;;;7.13;4.17;;;13.20;90.00;;;;;;5065668;28;20211;-33
2022/05/09 04:38:26;;;;;;;6.90;4.03;;;13.20;90.00;;;;;;5063109;28;20195;-33
2022/05/09 04:40:56;;;;;;;9.60;4.03;;;13.20;90.00;;;;;;5061975;28;20407;-33
2022/05/09 04:43:28;;;;;;;9.03;4.43;;;13.20;90.00;;;;;;5065180;28;20262;-33
2022/05/09 04:45:59;;;;;;;11.03;3.83;;;13.20;90.00;;;;;;5054876;28;20203;-34
2022/05/09 04:48:28;;;;;;;7.70;3.93;;;13.20;90.10;;;;;;5051263;28;20204;-33
2022/05/09 04:50:55;;;;;;;14.13;4.10;;;13.20;90.00;;;;;;5066946;28;20204;-33
2022/05/09 04:53:23;;;;;;;8.43;4.73;;;13.20;90.10;;;;;;5067406;28;20748;-33
2022/05/09 04:55:51;;;;;;;12.07;4.17;;;13.30;90.10;;;;;;5065731;28;20240;-34
2022/05/09 04:58:23;;;;;;;13.70;4.47;;;13.30;90.20;;;;;;5050343;28;20200;-34
2022/05/09 05:00:51;;;;;;;7.57;4.17;;;13.30;90.20;;;;;;5049643;28;20232;-34
2022/05/09 05:03:18;;;;;;;8.27;4.23;;;13.30;90.20;;;;;;5054188;28;20200;-33
2022/05/09 05:05:46;;;;;;;14.87;6.30;;;13.30;90.20;;;;;;5067576;28;20206;-34
2022/05/09 05:08:15;;;;;;;25.67;7.30;;;13.40;90.30;;;;;;5067335;28;20222;-34
2022/05/09 05:10:42;;;;;;;17.43;6.20;;;13.40;90.40;;;;;;5056061;28;20211;-34
2022/05/09 05:13:12;;;;;;;13.50;5.00;;;13.50;90.40;;;;;;5067943;28;20203;-34
2022/05/09 05:15:39;;;;;;;11.40;4.80;;;13.50;90.30;;;;;;5052239;28;20204;-33
2022/05/09 05:18:07;;;;;;;18.63;5.03;;;13.50;90.30;;;;;;5066892;28;20930;-33
2022/05/09 05:20:35;;;;;;;9.73;5.30;;;13.60;90.40;;;;;;5065436;28;20574;-34
2022/05/09 05:23:02;;;;;;;11.53;4.67;;;13.60;90.40;;;;;;5067951;28;20283;-34
2022/05/09 05:25:30;;;;;;;14.43;4.50;;;13.60;90.40;;;;;;5069240;28;20249;-34
2022/05/09 05:27:58;;;;;;;9.20;4.87;;;13.60;90.50;;;;;;5068148;28;20215;-34
2022/05/09 05:30:25;;;;;;;11.83;4.43;;;13.70;90.50;;;;;;5069026;28;20207;-34
2022/05/09 05:32:55;;;;;;;9.53;4.37;;;13.70;90.60;;;;;;5063583;28;20249;-34
2022/05/09 05:35:24;;;;;;;12.27;4.87;;;13.70;90.60;;;;;;5059007;28;20233;-33
2022/05/09 05:37:52;;;;;;;13.57;4.70;;;13.70;90.60;;;;;;5049246;28;20244;-34
2022/05/09 05:40:19;;;;;;;7.53;4.50;;;13.80;90.60;;;;;;5049091;28;20541;-33
2022/05/09 05:42:47;;;;;;;11.60;4.80;;;13.80;90.70;;;;;;5049117;28;20674;-34
2022/05/09 05:45:17;;;;;;;15.60;4.93;;;13.90;90.70;;;;;;5061241;28;20273;-35
2022/05/09 05:47:46;;;;;;;13.20;5.00;;;13.90;90.70;;;;;;5057781;28;20195;-33
2022/05/09 05:50:15;;;;;;;12.53;4.17;;;13.90;90.70;;;;;;5051145;28;20192;-33
2022/05/09 05:52:42;;;;;;;11.57;4.57;;;14.00;90.80;;;;;;5054712;28;20256;-33
2022/05/09 05:55:10;;;;;;;8.20;4.47;;;14.00;90.80;;;;;;5061136;28;20206;-34
2022/05/09 05:57:42;;;;;;;12.43;4.93;;;14.00;90.80;;;;;;5053563;28;20246;-34
2022/05/09 06:00:22;;;;;;;9.27;4.43;;;14.10;90.80;;;;;;5053635;28;20285;-35
2022/05/09 06:02:52;;;;;;;8.50;4.97;;;14.10;90.90;;;;;;5067555;28;20313;-34
2022/05/09 06:05:20;;;;;;;14.37;4.83;;;14.10;90.80;;;;;;5063837;28;20684;-35
2022/05/09 06:07:52;;;;;;;9.50;4.80;;;14.20;90.90;;;;;;5049872;28;20212;-35
2022/05/09 06:10:19;;;;;;;12.47;5.27;;;14.20;90.90;;;;;;5056958;28;20318;-35
2022/05/09 06:12:47;;;;;;;12.10;5.87;;;14.30;91.00;;;;;;5065165;28;20677;-34
2022/05/09 06:15:25;;;;;;;9.17;4.97;;;14.30;91.00;;;;;;5052630;28;20587;-35
2022/05/09 06:17:53;;;;;;;11.73;5.43;;;14.40;91.00;;;;;;5068745;28;20276;-36
2022/05/09 06:20:21;;;;;;;11.98;5.57;;;14.50;91.10;;;;;;5049039;28;20220;-36
2022/05/09 06:22:50;;;;;;;10.07;5.20;;;14.50;91.20;;;;;;5055339;28;20223;-36
2022/05/09 06:25:19;;;;;;;11.53;5.57;;;14.60;91.20;;;;;;5053641;28;20236;-36
2022/05/09 06:27:47;;;;;;;14.43;5.25;;;14.60;91.20;;;;;;5058441;28;20218;-36
2022/05/09 06:30:17;;;;;;;9.98;5.13;;;14.70;91.20;;;;;;5046421;28;20212;-36
2022/05/09 06:32:44;;;;;;;8.65;4.57;;;14.80;91.30;;;;;;5047669;28;20222;-36
2022/05/09 06:35:14;;;;;;;12.77;5.27;;;14.80;91.30;;;;;;5047143;28;20591;-36
2022/05/09 06:37:42;;;;;;;8.77;4.93;;;14.90;91.30;;;;;;5047933;28;20625;-37
2022/05/09 06:40:12;;;;;;;7.47;4.40;;;14.90;91.30;;;;;;5047103;28;20234;-37
2022/05/09 06:42:40;;;;;;;9.70;4.97;;;15.00;91.40;;;;;;5049169;28;20215;-37
2022/05/09 06:45:10;;;;;;;6.50;4.77;;;15.10;91.40;;;;;;5057227;28;20747;-37
2022/05/09 06:47:45;;;;;;;9.30;4.20;;;15.10;91.40;;;;;;5067952;28;20208;-37
2022/05/09 06:50:16;;;;;;;6.73;4.30;;;15.20;91.50;;;;;;5062880;28;20199;-37
2022/05/09 06:52:43;;;;;;;8.33;4.80;;;15.30;91.60;;;;;;5066393;28;20200;-37
2022/05/09 06:55:31;;;;;;;8.87;4.03;;;15.30;91.60;;;;;;5062840;28;20225;-37
2022/05/09 06:57:58;;;;;;;8.27;4.53;;;15.40;91.60;;;;;;5054346;28;20231;-37
2022/05/09 07:00:26;;;;;;;8.47;4.50;;;15.50;91.70;;;;;;5060231;28;20567;-37
2022/05/09 07:02:56;;;;;;;7.40;4.00;;;15.50;91.70;;;;;;5047338;28;20616;-37
2022/05/09 07:05:24;;;;;;;7.37;4.40;;;15.60;91.70;;;;;;5046513;28;20730;-37
2022/05/09 07:07:51;;;;;;;11.23;4.97;;;15.70;91.80;;;;;;5047359;28;20213;-37
2022/05/09 07:10:22;;;;;;;6.95;3.97;;;15.70;91.80;;;;;;5049061;28;20204;-37
2022/05/09 07:12:52;;;;;;;7.88;3.85;;;15.80;91.80;;;;;;5047113;28;20242;-37
2022/05/09 07:15:25;;;;;;;6.05;3.83;;;15.90;91.90;;;;;;5054878;28;20204;-38
2022/05/09 07:17:53;;;;;;;7.47;3.88;;;15.90;91.90;;;;;;5054566;28;20283;-37
2022/05/09 07:20:22;;;;;;;7.80;4.38;;;16.00;91.90;;;;;;5056028;28;20626;-36
2022/05/09 07:22:57;;;;;;;6.88;3.90;;;16.10;92.00;;;;;;5045021;28;20219;-36
2022/05/09 07:25:25;;;;;;;8.48;4.00;;;16.10;92.00;;;;;;5052358;28;20207;-36
2022/05/09 07:27:53;;;;;;;7.13;4.63;;;16.20;92.00;;;;;;5050457;28;20230;-36
2022/05/09 07:30:23;;;;;;;8.13;4.20;;;16.30;92.10;;;;;;5047177;28;20674;-36
2022/05/09 07:32:53;;;;;;;7.43;4.13;;;16.30;92.10;;;;;;5062949;28;20265;-37
2022/05/09 07:35:21;;;;;;;7.68;4.10;;;16.40;92.20;;;;;;5049091;28;20235;-36
2022/05/09 07:37:48;;;;;;;13.88;4.97;;;16.50;92.20;;;;;;5061358;28;20211;-36
2022/05/09 07:40:18;;;;;;;7.93;4.25;;;16.50;92.20;;;;;;5070627;28;20721;-36
2022/05/09 07:42:47;;;;;;;7.50;4.20;;;16.60;92.30;;;;;;5064698;28;20576;-36
2022/05/09 07:45:17;;;;;;;8.15;4.20;;;16.60;92.30;;;;;;5061035;28;20226;-36
2022/05/09 07:47:47;;;;;;;8.13;4.03;;;16.70;92.30;;;;;;5063456;28;20196;-36
2022/05/09 07:50:16;;;;;;;6.45;3.55;;;16.70;92.30;;;;;;5062557;28;20196;-36
2022/05/09 07:52:45;;;;;;;7.95;4.28;;;16.80;92.40;;;;;;5043744;28;20314;-36
2022/05/09 07:55:17;;;;;;;7.25;4.38;;;16.80;92.40;;;;;;5051975;28;20631;-35
2022/05/09 07:57:47;;;;;;;5.85;3.65;;;16.90;92.40;;;;;;5063746;28;20204;-36
2022/05/09 08:00:23;;;;;;;6.20;3.30;;;16.90;92.40;;;;;;5052760;28;20208;-37
2022/05/09 08:02:51;;;;;;;4.80;3.17;;;17.00;92.50;;;;;;5058963;28;20864;-35
2022/05/09 08:05:18;;;;;;;7.80;3.70;;;17.00;92.50;;;;;;5060048;28;20200;-35
2022/05/09 08:07:45;;;;;;;11.32;4.50;;;17.10;92.50;;;;;;5050884;28;20614;-35
2022/05/09 08:10:15;;;;;;;9.25;3.47;;;17.20;92.60;;;;;;5055143;28;20226;-35
2022/05/09 08:12:43;;;;;;;13.68;3.88;;;17.20;92.60;;;;;;5069260;28;20231;-35
2022/05/09 08:15:15;;;;;;;10.02;3.90;;;17.30;92.70;;;;;;5060675;28;20239;-35
2022/05/09 08:17:45;;;;;;;10.13;4.07;;;17.40;92.70;;;;;;5058802;28;20279;-36
2022/05/09 08:20:13;;;;;;;8.00;4.05;;;17.40;92.70;;;;;;5053574;28;20334;-35
2022/05/09 08:22:41;;;;;;;5.88;3.20;;;17.50;92.70;;;;;;5050923;28;20274;-35
2022/05/09 08:25:11;;;;;;;7.72;3.17;;;17.60;92.80;;;;;;5050214;28;20200;-36
2022/05/09 08:27:38;;;;;;;7.65;3.35;;;17.60;92.80;;;;;;5065299;28;20228;-36
2022/05/09 08:30:07;;;;;;;5.90;3.38;;;17.70;92.90;;;;;;5058579;28;20192;-36
2022/05/09 08:32:40;;;;;;;6.07;3.55;;;17.70;92.90;;;;;;5047977;28;20218;-36
2022/05/09 08:35:09;;;;;;;8.57;3.35;;;17.80;92.90;;;;;;5062333;28;20211;-36
2022/05/09 08:37:36;;;;;;;5.47;3.10;;;17.90;92.90;;;;;;5049811;28;20270;-36
2022/05/09 08:40:04;;;;;;;8.18;3.45;;;17.90;92.90;;;;;;5052308;28;20196;-35
2022/05/09 08:42:44;;;;;;;5.57;3.30;;;17.90;92.90;;;;;;5056994;28;20216;-36
2022/05/09 08:45:28;;;;;;;5.38;3.28;;;18.00;92.90;;;;;;5053530;28;20215;-36
2022/05/09 08:48:22;;;;;;;3.47;2.45;;;18.10;93.00;;;;;;5051565;28;20208;-36
2022/05/09 08:51:05;;;;;;;5.72;3.30;;;18.10;93.00;;;;;;5054307;28;20200;-36
2022/05/09 08:53:38;;;;;;;6.32;2.88;;;18.20;93.00;;;;;;5061058;28;20200;-36
2022/05/09 08:56:14;;;;;;;6.10;2.90;;;18.20;93.00;;;;;;5058406;28;20212;-35
2022/05/09 08:59:01;;;;;;;3.85;2.63;;;18.30;93.10;;;;;;5060927;28;20785;-35
2022/05/09 09:01:38;;;;;;;6.95;2.88;;;18.30;93.00;;;;;;5057112;28;20223;-35
2022/05/09 09:04:12;;;;;;;6.80;2.70;;;18.40;93.00;;;;;;5055239;28;20601;-37
2022/05/09 09:06:52;;;;;;;7.53;3.15;;;18.40;93.00;;;;;;5060794;28;20198;-37
2022/05/09 09:10:01;;;;;;;5.50;2.60;;;18.50;92.90;;;;;;5049846;28;20196;-37
2022/05/09 09:12:52;;;;;;;7.65;2.63;;;18.60;93.10;;;;;;5043411;28;20680;-37
2022/05/09 09:15:43;;;;;;;6.05;2.25;;;18.60;93.10;;;;;;5048209;28;20212;-37
2022/05/09 09:18:35;;;;;;;5.80;2.58;;;18.70;93.20;;;;;;5053483;28;20685;-37
2022/05/09 09:21:11;;;;;;;7.00;2.92;;;18.80;93.30;;;;;;5056050;28;20273;-37
2022/05/09 09:24:07;;;;;;;5.72;2.38;;;18.90;93.30;;;;;;5065213;28;20239;-37
2022/05/09 09:26:55;;;;;;;3.10;2.10;;;18.90;93.30;;;;;;5055710;28;20199;-37
2022/05/09 09:29:36;;;;;;;4.93;2.05;;;19.00;93.40;;;;;;5050394;28;20575;-38
2022/05/09 09:32:10;;;;;;;5.18;2.50;;;19.10;93.40;;;;;;5053127;28;20750;-37
2022/05/09 09:35:13;;;;;;;6.75;2.97;;;19.10;93.20;;;;;;5058316;28;20227;-37
2022/05/09 09:37:50;;;;;;;12.30;2.63;;;19.20;93.30;;;;;;5047985;28;20264;-37
2022/05/09 09:40:18;;;;;;;7.30;2.15;;;19.30;93.60;;;;;;5046006;28;20219;-37
2022/05/09 09:42:45;;;;;;;6.22;1.95;;;19.30;93.40;;;;;;5046193;28;20266;-35
2022/05/09 09:45:40;;;;;;;3.78;1.92;;;19.40;93.40;;;;;;5047089;28;20212;-36
2022/05/09 09:48:07;;;;;;;5.53;2.30;;;19.40;93.80;;;;;;5056094;28;20208;-36
2022/05/09 09:50:36;;;;;;;5.90;2.20;;;19.50;93.50;;;;;;5059580;28;20716;-35
2022/05/09 09:53:04;;;;;;;3.70;2.20;;;19.60;93.90;;;;;;5050248;28;20215;-35
2022/05/09 09:55:34;;;;;;;2.83;1.83;;;19.60;93.60;;;;;;5059317;28;20196;-35
2022/05/09 09:58:26;;;;;;;4.97;2.15;;;19.70;93.60;;;;;;5064346;28;20294;-35
2022/05/09 10:01:12;;;;;;;4.43;2.33;;;19.70;93.60;;;;;;5046593;28;20208;-35
2022/05/09 10:03:46;;;;;;;4.63;1.95;;;19.80;93.60;;;;;;5061372;28;20786;-35
2022/05/09 10:06:21;;;;;;;5.05;2.58;;;19.80;93.60;;;;;;5058998;28;20222;-36
2022/05/09 10:09:01;;;;;;;4.68;2.22;;;19.90;93.60;;;;;;5049720;28;20736;-35
2022/05/09 10:11:32;;;;;;;5.57;2.65;;;20.00;93.60;;;;;;5046708;28;20618;-35
2022/05/09 10:14:03;;;;;;;4.53;2.38;;;20.00;93.70;;;;;;5052991;28;20220;-35
2022/05/09 10:16:41;;;;;;;7.18;3.03;;;20.00;93.60;;;;;;5047693;28;20314;-35
2022/05/09 10:19:10;;;;;;;4.25;2.30;;;20.10;93.50;;;;;;5053486;28;20228;-35
2022/05/09 10:24:51;;;;;;;6.00;2.80;;;20.20;93.80;;;;;;5048847;28;20204;-35
2022/05/09 10:27:31;;;;;;;7.00;3.10;;;20.20;93.70;;;;;;5048681;28;20291;-35
2022/05/09 10:30:19;;;;;;;5.20;2.90;;;20.30;93.70;;;;;;5053786;28;20197;-35
2022/05/09 10:32:57;;;;;;;7.00;2.53;;;20.30;93.70;;;;;;5049061;28;20366;-35
2022/05/09 10:35:54;;;;;;;3.67;2.85;;;20.40;93.80;;;;;;5053960;28;20302;-35
2022/05/09 10:38:35;;;;;;;4.95;3.20;;;20.50;93.80;;;;;;5045150;28;20232;-37
2022/05/09 10:41:30;;;;;;;7.30;3.80;;;20.50;93.80;;;;;;5045507;28;20596;-37
2022/05/09 10:44:03;;;;;;;10.45;4.10;;;20.60;93.80;;;;;;5047130;28;20678;-37
2022/05/09 10:46:52;;;;;;;6.90;3.60;;;20.60;93.80;;;;;;5052843;28;20219;-37
2022/05/09 10:49:26;;;;;;;7.30;3.95;;;20.70;93.90;;;;;;5050356;28;20216;-37
2022/05/09 10:52:16;;;;;;;7.30;3.03;;;20.70;94.00;;;;;;5044534;28;20220;-37
2022/05/09 10:54:52;;;;;;;8.73;4.10;;;20.80;94.00;;;;;;5052570;28;20206;-37
2022/05/09 10:57:43;;;;;;;9.85;4.15;;;20.80;93.70;;;;;;5047223;28;20291;-37
2022/05/09 11:00:24;;;;;;;6.07;3.40;;;20.90;93.90;;;;;;5050881;28;20239;-37
2022/05/09 11:03:17;;;;;;;6.43;2.90;;;20.90;94.00;;;;;;5052040;28;20582;-38
2022/05/09 11:06:10;;;;;;;8.50;3.90;;;21.00;94.00;;;;;;5045560;28;20618;-37
2022/05/09 11:08:58;;;;;;;6.00;3.40;;;21.00;94.10;;;;;;5053361;28;20413;-38
2022/05/09 11:11:51;;;;;;;7.53;3.38;;;21.10;94.20;;;;;;5057473;28;20237;-37
2022/05/09 11:14:27;;;;;;;11.38;4.25;;;21.20;94.20;;;;;;5031963;28;20565;-37
2022/05/09 11:17:08;;;;;;;3.60;2.90;;;21.20;94.10;;;;;;5058339;28;20204;-37
2022/05/09 11:20:10;;;;;;;8.27;3.33;;;21.30;94.30;;;;;;5065353;28;20203;-37
2022/05/09 11:23:10;;;;;;;5.10;3.53;;;21.40;94.50;;;;;;5013920;28;20304;-37
2022/05/09 11:26:02;;;;;;;4.15;3.08;;;21.50;94.50;;;;;;5061834;28;20294;-37
2022/05/09 11:28:53;;;;;;;4.20;2.97;;;21.50;94.50;;;;;;5050921;28;20261;-37
2022/05/09 11:31:41;;;;;;;7.32;4.00;;;21.70;94.60;;;;;;5028330;28;20303;-37
2022/05/09 11:34:36;;;;;;;4.68;2.90;;;21.70;94.60;;;;;;5051245;28;20212;-37
2022/05/09 11:37:22;;;;;;;4.75;2.95;;;21.80;94.70;;;;;;5049305;28;20204;-38
2022/05/09 11:40:28;;;;;;;5.70;3.10;;;21.90;94.80;;;;;;5047347;28;20402;-38
2022/05/09 11:43:27;;;;;;;7.68;3.45;;;21.90;94.60;;;;;;5057615;28;20231;-38
2022/05/09 11:46:21;;;;;;;7.00;4.00;;;22.00;94.80;;;;;;5062825;28;20606;-36
2022/05/09 11:49:06;;;;;;;6.68;3.60;;;22.10;94.80;;;;;;5056949;28;20653;-39
2022/05/09 11:51:45;;;;;;;6.05;3.55;;;22.20;94.90;;;;;;5055775;28;20248;-40
2022/05/09 11:54:30;;;;;;;9.15;3.88;;;22.20;94.90;;;;;;5052076;28;20261;-39
2022/05/09 11:57:07;;;;;;;5.18;3.72;;;22.30;94.90;;;;;;5050025;28;20201;-39
2022/05/09 11:59:36;;;;;;;6.03;3.67;;;22.30;94.80;;;;;;5054252;28;20200;-36
2022/05/09 12:02:08;;;;;;;8.15;3.60;;;22.30;94.90;;;;;;5066936;28;21001;-37
2022/05/09 12:04:47;;;;;;;7.70;3.65;;;22.40;95.00;;;;;;5054309;28;20196;-36
2022/05/09 12:07:23;;;;;;;4.28;2.75;;;22.50;94.90;;;;;;5057362;28;20223;-36
2022/05/09 12:10:03;;;;;;;5.63;2.92;;;22.50;95.00;;;;;;5049796;28;20625;-35
2022/05/09 12:12:41;;;;;;;4.63;3.20;;;22.60;95.10;;;;;;5060265;28;20834;-36
2022/05/09 12:15:10;;;;;;;6.43;4.43;;;22.70;95.10;;;;;;5059557;28;20207;-37
2022/05/09 12:17:41;;;;;;;7.78;3.92;;;22.70;94.90;;;;;;5051893;28;20668;-36
2022/05/09 12:20:12;;;;;;;6.60;3.47;;;22.70;95.00;;;;;;5055152;28;20338;-40
2022/05/09 12:22:49;;;;;;;13.38;4.63;;;22.80;95.10;;;;;;5059567;28;20233;-41
2022/05/09 12:25:41;;;;;;;20.05;5.60;;;22.80;94.70;;;;;;5063602;28;20214;-39
2022/05/09 12:28:20;;;;;;;18.23;4.90;;;22.90;95.00;;;;;;5061687;28;20214;-39
2022/05/09 12:31:06;;;;;;;10.60;4.35;;;23.00;95.10;;;;;;5050961;28;20234;-36
2022/05/09 12:33:45;;;;;;;6.80;3.80;;;23.10;95.20;;;;;;5048692;28;20242;-36
2022/05/09 12:36:28;;;;;;;8.38;4.13;;;23.10;95.10;;;;;;5056711;28;20215;-37
2022/05/09 12:39:16;;;;;;;11.07;4.72;;;23.20;95.30;;;;;;5060092;28;20203;-37
2022/05/09 12:41:56;;;;;;;94.15;13.13;;;23.30;95.30;;;;;;5056097;28;20218;-45
2022/05/09 12:44:29;;;;;;;11.60;4.65;;;23.30;95.10;;;;;;5050015;28;20200;-35
2022/05/09 12:47:04;;;;;;;6.53;4.45;;;23.30;95.20;;;;;;5049516;28;20307;-35
2022/05/09 12:49:45;;;;;;;6.35;3.80;;;23.40;94.90;;;;;;5053980;28;20195;-34
2022/05/09 12:52:24;;;;;;;6.57;3.50;;;23.50;95.30;;;;;;5062860;28;20635;-34
2022/05/09 12:57:44;;;;;;;6.00;3.58;;;23.60;95.30;;;;;;5064958;28;20208;-34
2022/05/09 13:00:25;;;;;;;7.10;4.35;;;23.60;95.40;;;;;;5049829;28;20282;-35
2022/05/09 13:03:17;;;;;;;5.80;4.20;;;23.70;95.20;;;;;;5047340;28;20278;-34
2022/05/09 13:05:48;;;;;;;5.70;3.40;;;23.80;95.50;;;;;;5047709;28;20214;-34
2022/05/09 13:08:16;;;;;;;5.28;3.70;;;23.80;95.50;;;;;;5055051;28;20212;-34
2022/05/09 13:10:58;;;;;;;5.07;3.55;;;23.90;95.60;;;;;;5057675;28;20223;-34
2022/05/09 13:13:34;;;;;;;6.20;3.53;;;24.00;95.60;;;;;;5059212;28;20256;-34
2022/05/09 13:16:02;;;;;;;6.85;4.65;;;24.20;95.80;;;;;;5052215;28;20550;-33
2022/05/09 13:18:35;;;;;;;7.50;3.92;;;24.20;95.80;;;;;;5066603;28;20294;-35
2022/05/09 13:21:08;;;;;;;5.82;3.72;;;24.30;95.70;;;;;;5065601;28;20685;-34
2022/05/09 13:23:41;;;;;;;5.20;3.45;;;24.40;95.80;;;;;;5062110;28;20211;-33
2022/05/09 13:26:15;;;;;;;4.25;3.40;;;24.50;96.00;;;;;;5067599;28;20210;-33
2022/05/09 13:29:09;;;;;;;8.10;3.72;;;24.60;96.00;;;;;;5064701;28;20211;-35
2022/05/09 13:31:45;;;;;;;9.20;4.53;;;24.70;96.10;;;;;;5061252;28;20311;-35
2022/05/09 13:34:30;;;;;;;5.50;3.65;;;24.70;95.80;;;;;;5065313;28;20215;-35